Time;durP1;ratioP1;P1;durP2;ratioP2;P2;SDS_P1;SDS_P2;PMS_P1;PMS_P2;Temp;Humidity;BMP_temperature;BMP_pressure;BME280_temperature;BME280_humidity;BME280_pressure;Samples;Min_cycle;Max_cycle;Signal;HPM_P1;HPM_P2
2021/06/26 00:00:08;;;;;;;17.95;14.10;;;16.00;99.90;;;;;;5074227;28;20054;-82
2021/06/26 00:02:33;;;;;;;18.60;14.55;;;16.00;99.90;;;;;;5072321;28;20025;-82
2021/06/26 00:04:59;;;;;;;18.73;13.60;;;16.10;99.90;;;;;;5073832;28;20025;-82
2021/06/26 00:07:25;;;;;;;20.52;14.40;;;16.00;99.90;;;;;;5073902;28;20494;-82
2021/06/26 00:09:50;;;;;;;19.55;14.88;;;16.00;99.90;;;;;;5074053;28;20394;-82
2021/06/26 00:12:16;;;;;;;20.63;14.77;;;16.00;99.90;;;;;;5074020;28;20385;-82
2021/06/26 00:14:42;;;;;;;20.73;15.20;;;15.90;99.90;;;;;;5073924;28;20024;-82
2021/06/26 00:17:08;;;;;;;22.90;15.25;;;15.90;99.90;;;;;;5074928;28;20027;-82
2021/06/26 00:19:34;;;;;;;21.50;16.13;;;15.90;99.90;;;;;;5072407;28;20032;-83
2021/06/26 00:22:00;;;;;;;21.00;15.60;;;15.80;99.90;;;;;;5072444;28;20074;-82
2021/06/26 00:24:25;;;;;;;21.42;15.25;;;15.80;99.90;;;;;;5072601;28;20092;-82
2021/06/26 00:26:51;;;;;;;20.90;15.73;;;15.80;99.90;;;;;;5072401;28;20021;-82
2021/06/26 00:29:17;;;;;;;22.50;14.90;;;15.70;99.90;;;;;;5072408;28;20024;-82
2021/06/26 00:31:42;;;;;;;18.55;14.82;;;15.70;99.90;;;;;;5073526;28;20036;-82
2021/06/26 00:34:08;;;;;;;21.00;15.82;;;15.70;99.90;;;;;;5073750;28;20020;-82
2021/06/26 00:36:34;;;;;;;22.38;15.63;;;15.70;99.90;;;;;;5072590;28;20029;-82
2021/06/26 00:38:59;;;;;;;22.70;16.25;;;15.70;99.90;;;;;;5073483;28;20036;-83
2021/06/26 00:41:25;;;;;;;22.08;15.85;;;15.70;99.90;;;;;;5072556;28;20025;-82
2021/06/26 00:43:51;;;;;;;19.83;15.48;;;15.70;99.90;;;;;;5072147;28;20016;-82
2021/06/26 00:46:16;;;;;;;21.33;14.65;;;15.60;99.90;;;;;;5073385;28;20122;-82
2021/06/26 00:48:42;;;;;;;17.48;12.73;;;15.60;99.90;;;;;;5072036;28;20029;-82
2021/06/26 00:51:08;;;;;;;23.05;15.45;;;15.60;99.90;;;;;;5073303;28;20074;-83
2021/06/26 00:53:34;;;;;;;21.70;15.23;;;15.50;99.90;;;;;;5071907;28;20020;-83
2021/06/26 00:56:02;;;;;;;25.60;16.30;;;15.50;99.90;;;;;;5071638;28;20545;-83
2021/06/26 00:58:28;;;;;;;21.63;15.10;;;15.40;99.90;;;;;;5073197;28;20478;-83
2021/06/26 01:00:54;;;;;;;24.33;16.90;;;15.50;99.90;;;;;;5071921;28;20120;-83
2021/06/26 01:03:21;;;;;;;22.90;16.70;;;15.40;99.90;;;;;;5073131;28;20060;-83
2021/06/26 01:05:47;;;;;;;22.63;17.63;;;15.40;99.90;;;;;;5073085;28;20490;-82
2021/06/26 01:08:13;;;;;;;25.38;17.55;;;15.40;99.90;;;;;;5071862;28;20071;-82
2021/06/26 01:10:39;;;;;;;22.63;16.40;;;15.40;99.90;;;;;;5073049;28;20048;-82
2021/06/26 01:13:06;;;;;;;20.95;15.23;;;15.30;99.90;;;;;;5068189;28;20056;-82
2021/06/26 01:15:32;;;;;;;20.02;15.30;;;15.20;99.90;;;;;;5051741;28;20446;-83
2021/06/26 01:17:58;;;;;;;20.08;15.25;;;15.20;99.90;;;;;;5052091;28;20089;-83
2021/06/26 01:20:24;;;;;;;18.92;14.50;;;15.20;99.90;;;;;;5067281;28;20067;-82
2021/06/26 01:23:00;;;;;;;18.95;13.73;;;15.10;99.90;;;;;;5072901;28;20031;-82
2021/06/26 01:25:27;;;;;;;24.85;15.07;;;15.10;99.90;;;;;;5071859;28;20024;-82
2021/06/26 01:27:55;;;;;;;19.85;14.75;;;15.10;99.90;;;;;;5072866;28;20024;-82
2021/06/26 01:30:26;;;;;;;23.45;16.10;;;15.10;99.90;;;;;;5072084;28;20028;-82
2021/06/26 01:32:52;;;;;;;15.55;12.80;;;15.00;99.90;;;;;;5071474;28;20230;-83
2021/06/26 01:35:18;;;;;;;22.58;14.80;;;15.00;99.90;;;;;;5073061;28;20413;-82
2021/06/26 01:37:43;;;;;;;23.88;16.52;;;15.00;99.90;;;;;;5072822;28;20103;-83
2021/06/26 01:40:24;;;;;;;28.83;17.50;;;15.00;99.90;;;;;;5072765;28;20036;-83
2021/06/26 01:42:51;;;;;;;26.58;18.42;;;14.90;99.90;;;;;;5071388;28;20021;-83
2021/06/26 01:45:18;;;;;;;22.90;15.10;;;14.90;99.90;;;;;;5072700;28;20028;-83
2021/06/26 01:47:48;;;;;;;21.35;15.75;;;14.90;99.90;;;;;;5071060;28;20025;-83
2021/06/26 01:50:15;;;;;;;20.98;15.65;;;14.90;99.90;;;;;;5075981;28;20024;-83
2021/06/26 01:52:43;;;;;;;18.15;14.20;;;14.80;99.90;;;;;;5071287;28;20052;-83
2021/06/26 01:55:10;;;;;;;14.88;11.23;;;14.80;99.90;;;;;;5071379;28;20112;-83
2021/06/26 01:57:36;;;;;;;13.80;10.55;;;14.70;99.90;;;;;;5071185;28;20502;-83
2021/06/26 02:00:03;;;;;;;16.15;10.23;;;14.80;99.90;;;;;;5071558;28;20111;-82
2021/06/26 02:02:28;;;;;;;11.40;8.73;;;14.70;99.90;;;;;;5072029;28;20033;-82
2021/06/26 02:04:54;;;;;;;10.65;8.57;;;14.60;99.90;;;;;;5072533;28;20029;-82
2021/06/26 02:07:20;;;;;;;9.73;8.05;;;14.60;99.90;;;;;;5072568;28;20541;-82
2021/06/26 02:09:45;;;;;;;9.57;8.57;;;14.50;99.90;;;;;;5071129;28;20029;-83
2021/06/26 02:12:11;;;;;;;10.80;9.13;;;14.50;99.90;;;;;;5072384;28;20033;-83
2021/06/26 02:14:37;;;;;;;12.35;9.80;;;14.50;99.90;;;;;;5074889;28;20032;-83
2021/06/26 02:17:02;;;;;;;11.25;9.30;;;14.60;99.90;;;;;;5072169;28;20029;-83
2021/06/26 02:19:28;;;;;;;15.45;11.32;;;14.60;99.90;;;;;;5072215;28;20036;-83
2021/06/26 02:21:54;;;;;;;15.63;11.93;;;14.50;99.90;;;;;;5072349;28;20047;-83
2021/06/26 02:24:19;;;;;;;13.63;11.70;;;14.50;99.90;;;;;;5071947;28;20367;-83
2021/06/26 02:26:45;;;;;;;18.15;13.23;;;14.60;99.90;;;;;;5075964;28;20393;-82
2021/06/26 02:29:11;;;;;;;18.23;12.85;;;14.60;99.90;;;;;;5082345;28;20503;-82
2021/06/26 02:31:36;;;;;;;22.85;16.33;;;14.70;99.90;;;;;;5075850;28;20021;-83
2021/06/26 02:34:02;;;;;;;22.15;15.90;;;14.70;99.90;;;;;;5074694;28;20047;-83
2021/06/26 02:36:29;;;;;;;16.38;13.05;;;14.80;99.90;;;;;;5075797;28;20059;-83
2021/06/26 02:38:54;;;;;;;14.98;10.23;;;14.70;99.90;;;;;;5075556;28;20040;-83
2021/06/26 02:41:22;;;;;;;10.25;9.00;;;14.70;99.90;;;;;;5075582;28;20013;-83
2021/06/26 02:43:48;;;;;;;12.60;8.52;;;14.70;99.90;;;;;;5074479;28;20025;-83
2021/06/26 02:46:14;;;;;;;12.85;10.35;;;14.60;99.90;;;;;;5077849;28;20013;-83
2021/06/26 02:48:40;;;;;;;11.60;10.38;;;14.60;99.90;;;;;;5073785;28;20027;-83
2021/06/26 02:51:06;;;;;;;12.63;10.13;;;14.60;99.90;;;;;;5074310;28;20025;-83
2021/06/26 02:53:31;;;;;;;14.57;10.80;;;14.60;99.90;;;;;;5082716;28;20020;-83
2021/06/26 02:55:57;;;;;;;12.38;10.95;;;14.60;99.90;;;;;;5074211;28;20055;-83
2021/06/26 02:58:24;;;;;;;14.13;10.88;;;14.60;99.90;;;;;;5074153;28;20158;-83
2021/06/26 03:00:50;;;;;;;16.40;11.35;;;14.60;99.90;;;;;;5075434;28;20028;-83
2021/06/26 03:03:15;;;;;;;15.52;12.02;;;14.70;99.90;;;;;;5073287;28;20029;-83
2021/06/26 03:05:41;;;;;;;17.00;12.52;;;14.70;99.90;;;;;;5075285;28;20074;-83
2021/06/26 03:08:08;;;;;;;14.23;11.27;;;14.70;99.90;;;;;;5073886;28;20020;-83
2021/06/26 03:10:34;;;;;;;16.90;10.93;;;14.80;99.90;;;;;;5054950;28;20033;-83
2021/06/26 03:12:59;;;;;;;17.25;13.05;;;14.80;99.90;;;;;;5055188;28;20017;-83
2021/06/26 03:15:25;;;;;;;18.23;13.77;;;14.70;99.90;;;;;;5053889;28;20027;-82
2021/06/26 03:17:51;;;;;;;18.95;13.55;;;14.70;99.90;;;;;;5062496;28;20036;-83
2021/06/26 03:20:16;;;;;;;19.63;14.38;;;14.80;99.90;;;;;;5055302;28;20037;-83
2021/06/26 03:22:42;;;;;;;19.63;14.40;;;14.80;99.90;;;;;;5053277;28;20021;-83
2021/06/26 03:25:09;;;;;;;22.85;15.07;;;14.90;99.90;;;;;;5055064;28;20041;-82
2021/06/26 03:27:37;;;;;;;24.48;15.93;;;14.90;99.90;;;;;;5063112;28;20032;-81
2021/06/26 03:30:04;;;;;;;53.15;24.95;;;14.90;99.90;;;;;;5074702;28;20029;-80
2021/06/26 03:32:30;;;;;;;31.83;17.60;;;14.90;99.90;;;;;;5069719;28;20021;-80
2021/06/26 03:34:55;;;;;;;20.35;14.00;;;14.90;99.90;;;;;;5072632;28;20079;-81
2021/06/26 03:37:21;;;;;;;24.77;14.00;;;14.90;99.90;;;;;;5056066;28;20033;-81
2021/06/26 03:39:47;;;;;;;21.08;14.20;;;14.90;99.90;;;;;;5064720;28;20429;-80
2021/06/26 03:42:12;;;;;;;17.52;13.07;;;14.90;99.90;;;;;;5055222;28;20059;-81
2021/06/26 03:44:38;;;;;;;19.45;14.73;;;15.00;99.90;;;;;;5054618;28;20025;-81
2021/06/26 03:47:04;;;;;;;22.45;16.85;;;15.00;99.90;;;;;;5073540;28;20397;-80
2021/06/26 03:49:33;;;;;;;23.95;16.50;;;15.00;99.90;;;;;;5068686;28;20017;-81
2021/06/26 03:52:00;;;;;;;24.83;17.48;;;15.00;99.90;;;;;;5071014;28;20029;-82
2021/06/26 03:54:26;;;;;;;24.45;17.58;;;15.10;99.90;;;;;;5073741;28;20025;-83
2021/06/26 03:56:52;;;;;;;25.25;18.98;;;15.10;99.90;;;;;;5073406;28;20020;-82
2021/06/26 03:59:17;;;;;;;28.27;18.83;;;15.20;99.90;;;;;;5071963;28;20044;-83
2021/06/26 04:01:43;;;;;;;28.38;19.38;;;15.30;99.90;;;;;;5068774;28;20027;-87
2021/06/26 04:04:09;;;;;;;28.45;18.95;;;15.30;99.90;;;;;;5069229;28;20394;-83
2021/06/26 04:06:34;;;;;;;28.42;18.02;;;15.40;99.90;;;;;;5072803;28;20460;-87
2021/06/26 04:09:00;;;;;;;35.95;22.33;;;15.50;99.90;;;;;;5071262;28;20107;-84
2021/06/26 04:11:26;;;;;;;37.38;22.20;;;15.50;99.90;;;;;;5072210;28;20024;-86
2021/06/26 04:13:51;;;;;;;43.00;24.02;;;15.70;99.90;;;;;;5072183;28;20021;-86
2021/06/26 04:16:17;;;;;;;52.15;27.92;;;15.90;99.90;;;;;;5067702;28;20021;-85
2021/06/26 04:18:43;;;;;;;44.80;24.80;;;16.00;99.90;;;;;;5069613;28;20054;-85
2021/06/26 04:21:08;;;;;;;46.80;26.27;;;16.20;99.90;;;;;;5063715;28;20107;-85
2021/06/26 04:23:34;;;;;;;48.28;27.50;;;16.40;99.90;;;;;;5072817;28;20052;-85
2021/06/26 04:25:59;;;;;;;49.15;27.95;;;16.50;99.90;;;;;;5060004;28;20033;-85
2021/06/26 04:28:25;;;;;;;46.97;27.52;;;16.70;99.90;;;;;;5050437;28;20474;-86
2021/06/26 04:30:51;;;;;;;43.50;25.85;;;17.00;99.90;;;;;;5051352;28;20025;-85
2021/06/26 04:33:17;;;;;;;43.90;27.92;;;17.10;99.90;;;;;;5052366;28;20482;-85
2021/06/26 04:35:42;;;;;;;44.80;27.10;;;17.20;99.90;;;;;;5052336;28;20032;-85
2021/06/26 04:38:08;;;;;;;40.75;25.00;;;17.30;99.90;;;;;;5053531;28;20025;-85
2021/06/26 04:40:34;;;;;;;46.97;27.42;;;17.40;99.90;;;;;;5053411;28;20040;-84
2021/06/26 04:42:59;;;;;;;47.25;27.05;;;17.50;99.90;;;;;;5051335;28;20467;-85
2021/06/26 04:45:25;;;;;;;40.60;25.60;;;17.40;99.90;;;;;;5055665;28;20482;-84
2021/06/26 04:47:51;;;;;;;47.10;26.75;;;17.50;99.90;;;;;;5071504;28;20059;-85
2021/06/26 04:50:17;;;;;;;41.25;25.88;;;17.40;99.90;;;;;;5072120;28;20028;-85
2021/06/26 04:52:45;;;;;;;42.83;27.63;;;17.40;99.90;;;;;;5071902;28;20021;-85
2021/06/26 04:55:11;;;;;;;46.88;26.73;;;17.40;99.90;;;;;;5072077;28;20020;-86
2021/06/26 04:57:37;;;;;;;44.90;26.48;;;17.50;99.90;;;;;;5071916;28;20115;-85
2021/06/26 05:00:06;;;;;;;41.83;26.40;;;17.50;99.90;;;;;;5071861;28;20121;-85
2021/06/26 05:02:32;;;;;;;43.83;26.17;;;17.70;99.90;;;;;;5072071;28;20411;-85
2021/06/26 05:04:58;;;;;;;41.75;26.75;;;17.90;99.90;;;;;;5073116;28;20024;-86
2021/06/26 05:07:23;;;;;;;39.08;25.95;;;18.00;99.90;;;;;;5071918;28;20047;-86
2021/06/26 05:09:49;;;;;;;38.90;25.52;;;17.90;99.90;;;;;;5071805;28;20024;-85
2021/06/26 05:12:15;;;;;;;40.47;25.13;;;17.60;99.90;;;;;;5073071;28;20112;-85
2021/06/26 05:14:40;;;;;;;44.03;28.05;;;17.50;99.90;;;;;;5073214;28;20112;-84
2021/06/26 05:17:06;;;;;;;41.72;26.10;;;17.40;99.90;;;;;;5071670;28;20028;-84
2021/06/26 05:19:31;;;;;;;42.50;26.70;;;17.60;99.90;;;;;;5072830;28;20037;-84
2021/06/26 05:21:57;;;;;;;36.88;25.90;;;17.70;99.90;;;;;;5072852;28;20050;-84
2021/06/26 05:24:23;;;;;;;36.17;24.55;;;17.70;99.90;;;;;;5071734;28;20025;-84
2021/06/26 05:26:48;;;;;;;35.78;24.70;;;18.00;99.90;;;;;;5071481;28;20512;-84
2021/06/26 05:29:14;;;;;;;30.60;21.42;;;18.10;99.90;;;;;;5074714;28;20028;-84
2021/06/26 05:31:39;;;;;;;29.27;20.17;;;18.30;99.90;;;;;;5072484;28;20024;-84
2021/06/26 05:34:05;;;;;;;26.38;19.65;;;18.50;99.90;;;;;;5071577;28;20021;-84
2021/06/26 05:36:31;;;;;;;30.58;21.27;;;18.70;99.90;;;;;;5071378;28;20031;-84
2021/06/26 05:38:56;;;;;;;29.58;20.30;;;18.80;99.90;;;;;;5072585;28;20033;-84
2021/06/26 05:41:22;;;;;;;31.70;19.92;;;18.90;99.90;;;;;;5070876;28;20035;-84
2021/06/26 05:43:48;;;;;;;26.73;18.98;;;19.00;99.90;;;;;;5071348;28;20031;-84
2021/06/26 05:46:13;;;;;;;25.48;19.05;;;19.10;99.90;;;;;;5071594;28;20116;-84
2021/06/26 05:48:39;;;;;;;30.35;19.88;;;19.10;99.90;;;;;;5071345;28;20017;-84
2021/06/26 05:51:05;;;;;;;25.40;18.95;;;19.20;99.90;;;;;;5071326;28;20040;-85
2021/06/26 05:53:31;;;;;;;26.35;17.98;;;19.30;99.90;;;;;;5072597;28;20082;-85
2021/06/26 05:55:57;;;;;;;24.95;18.67;;;19.40;99.90;;;;;;5072577;28;20028;-84
2021/06/26 05:58:30;;;;;;;24.25;17.25;;;19.60;99.90;;;;;;5072557;28;20505;-84
2021/06/26 06:00:56;;;;;;;23.98;17.17;;;19.70;99.90;;;;;;5074238;28;20123;-85
2021/06/26 06:03:22;;;;;;;24.77;17.75;;;19.70;99.90;;;;;;5075892;28;20025;-85
2021/06/26 06:05:49;;;;;;;23.02;16.65;;;19.70;99.90;;;;;;5076091;28;20122;-85
2021/06/26 06:08:15;;;;;;;23.15;16.73;;;19.80;99.90;;;;;;5075217;28;20035;-85
2021/06/26 06:10:40;;;;;;;23.80;15.98;;;19.80;99.90;;;;;;5076390;28;20398;-85
2021/06/26 06:13:17;;;;;;;20.02;14.68;;;19.90;99.90;;;;;;5075092;28;20098;-84
2021/06/26 06:15:45;;;;;;;18.42;14.65;;;19.90;99.90;;;;;;5055767;28;20443;-85
2021/06/26 06:18:11;;;;;;;20.73;14.32;;;20.00;99.90;;;;;;5060269;28;20071;-85
2021/06/26 06:20:37;;;;;;;24.35;16.27;;;20.00;99.90;;;;;;5056083;28;20071;-85
2021/06/26 06:23:03;;;;;;;19.45;14.63;;;20.10;99.90;;;;;;5056167;28;20473;-85
2021/06/26 06:25:30;;;;;;;18.23;14.13;;;20.10;99.90;;;;;;5061807;28;20021;-85
2021/06/26 06:27:55;;;;;;;21.50;15.73;;;20.00;99.90;;;;;;5056128;28;20029;-84
2021/06/26 06:30:21;;;;;;;14.98;13.23;;;20.00;99.90;;;;;;5067616;28;20087;-84
2021/06/26 06:32:47;;;;;;;18.88;13.15;;;20.00;99.90;;;;;;5075852;28;20028;-84
2021/06/26 06:35:14;;;;;;;16.02;12.43;;;20.00;99.90;;;;;;5074174;28;20032;-84
2021/06/26 06:37:39;;;;;;;18.25;13.20;;;20.00;99.90;;;;;;5077033;28;20029;-85
2021/06/26 06:40:08;;;;;;;17.45;13.00;;;20.00;99.90;;;;;;5075765;28;20033;-84
2021/06/26 06:42:34;;;;;;;16.58;13.15;;;19.90;99.90;;;;;;5074399;28;20032;-82
2021/06/26 06:45:00;;;;;;;19.02;12.98;;;20.00;99.90;;;;;;5074451;28;20036;-83
2021/06/26 06:47:26;;;;;;;18.20;13.10;;;19.90;99.90;;;;;;5075677;28;20025;-84
2021/06/26 06:49:51;;;;;;;16.60;12.52;;;19.80;99.90;;;;;;5066669;28;20013;-83
2021/06/26 06:52:17;;;;;;;16.35;13.13;;;19.70;99.90;;;;;;5064833;28;20029;-83
2021/06/26 06:54:43;;;;;;;15.77;13.82;;;19.70;99.90;;;;;;5070848;28;20474;-83
2021/06/26 06:57:09;;;;;;;16.52;13.93;;;19.60;99.90;;;;;;5066510;28;20029;-83
2021/06/26 06:59:35;;;;;;;18.15;13.45;;;19.50;99.90;;;;;;5063665;28;20078;-83
2021/06/26 07:02:00;;;;;;;16.67;13.73;;;19.40;99.90;;;;;;5073361;28;20119;-83
2021/06/26 07:04:26;;;;;;;21.25;14.93;;;19.20;99.90;;;;;;5070709;28;20115;-83
2021/06/26 07:06:53;;;;;;;24.95;15.60;;;19.00;99.90;;;;;;5067446;28;20029;-83
2021/06/26 07:09:19;;;;;;;22.33;14.27;;;18.90;99.90;;;;;;5063749;28;20031;-83
2021/06/26 07:11:44;;;;;;;19.45;15.15;;;18.90;99.90;;;;;;5063570;28;20013;-83
2021/06/26 07:14:10;;;;;;;25.52;15.43;;;18.80;99.90;;;;;;5061803;28;20021;-83
2021/06/26 07:16:36;;;;;;;19.05;15.52;;;18.90;99.90;;;;;;5064972;28;20493;-83
2021/06/26 07:19:01;;;;;;;23.70;15.82;;;18.90;99.90;;;;;;5064081;28;20033;-83
2021/06/26 07:21:27;;;;;;;21.48;16.20;;;18.90;99.90;;;;;;5062112;28;20020;-83
2021/06/26 07:23:53;;;;;;;22.30;18.75;;;18.80;99.90;;;;;;5064323;28;20035;-84
2021/06/26 07:26:18;;;;;;;27.95;19.05;;;18.70;99.90;;;;;;5053437;28;20013;-84
2021/06/26 07:28:44;;;;;;;26.45;18.45;;;18.70;99.90;;;;;;5066393;28;20039;-85
2021/06/26 07:31:10;;;;;;;28.00;20.90;;;18.70;99.90;;;;;;5073013;28;20112;-86
2021/06/26 07:33:36;;;;;;;29.80;21.77;;;18.60;99.90;;;;;;5074013;28;20074;-83
2021/06/26 07:36:02;;;;;;;31.92;21.38;;;18.60;99.90;;;;;;5067592;28;20032;-83
2021/06/26 07:38:27;;;;;;;30.00;21.38;;;18.70;99.90;;;;;;5062553;28;20024;-84
2021/06/26 07:40:53;;;;;;;32.40;23.90;;;18.70;99.90;;;;;;5063100;28;20482;-84
2021/06/26 07:43:19;;;;;;;31.60;23.13;;;18.80;99.90;;;;;;5057080;28;20079;-84
2021/06/26 07:45:45;;;;;;;32.10;24.73;;;18.80;99.90;;;;;;5054377;28;20075;-83
2021/06/26 07:48:11;;;;;;;33.85;23.45;;;18.60;99.90;;;;;;5052782;28;20070;-83
2021/06/26 07:50:37;;;;;;;34.47;24.58;;;18.70;99.90;;;;;;5054016;28;20112;-83
2021/06/26 07:53:02;;;;;;;35.42;23.77;;;18.70;99.90;;;;;;5055578;28;20060;-83
2021/06/26 07:55:29;;;;;;;34.08;25.00;;;18.80;99.90;;;;;;5054288;28;20021;-83
2021/06/26 07:57:55;;;;;;;35.67;25.15;;;18.90;99.90;;;;;;5063759;28;20043;-83
2021/06/26 08:00:21;;;;;;;35.95;24.40;;;19.10;99.90;;;;;;5072715;28;20478;-83
2021/06/26 08:02:47;;;;;;;32.67;24.17;;;19.30;99.90;;;;;;5063460;28;20021;-83
2021/06/26 08:05:12;;;;;;;35.97;24.70;;;19.30;99.90;;;;;;5062398;28;20490;-83
2021/06/26 08:07:38;;;;;;;31.88;24.45;;;19.30;99.90;;;;;;5072201;28;20033;-84
2021/06/26 08:10:05;;;;;;;32.25;24.30;;;19.20;99.90;;;;;;5072718;28;20027;-83
2021/06/26 08:12:32;;;;;;;32.13;24.38;;;19.30;99.90;;;;;;5072519;28;20024;-83
2021/06/26 08:14:58;;;;;;;34.25;24.75;;;19.20;99.90;;;;;;5072582;28;20104;-83
2021/06/26 08:17:23;;;;;;;32.60;23.25;;;19.20;99.90;;;;;;5072138;28;20484;-82
2021/06/26 08:19:49;;;;;;;33.13;24.63;;;19.30;99.90;;;;;;5064365;28;20486;-82
2021/06/26 08:22:15;;;;;;;36.58;24.50;;;19.40;99.90;;;;;;5067450;28;20032;-83
2021/06/26 08:24:41;;;;;;;36.50;25.33;;;19.40;99.90;;;;;;5072361;28;20013;-82
2021/06/26 08:27:08;;;;;;;32.28;23.25;;;19.40;99.90;;;;;;5072023;28;20028;-81
2021/06/26 08:29:33;;;;;;;33.42;23.10;;;19.60;99.90;;;;;;5066931;28;20488;-80
2021/06/26 08:31:59;;;;;;;37.15;25.92;;;19.80;99.90;;;;;;5071199;28;20031;-81
2021/06/26 08:34:25;;;;;;;37.67;26.02;;;20.00;99.90;;;;;;5071148;28;20027;-81
2021/06/26 08:36:51;;;;;;;34.33;24.75;;;19.80;99.90;;;;;;5072715;28;20032;-81
2021/06/26 08:39:19;;;;;;;37.17;24.95;;;19.90;99.90;;;;;;5071454;28;20119;-81
2021/06/26 08:41:50;;;;;;;35.80;24.98;;;19.90;99.90;;;;;;5070710;28;20101;-81
2021/06/26 08:44:18;;;;;;;35.33;25.08;;;20.10;99.90;;;;;;5071234;28;20032;-81
2021/06/26 08:46:46;;;;;;;31.10;23.23;;;20.20;99.90;;;;;;5069434;28;20020;-81
2021/06/26 08:49:13;;;;;;;35.65;25.58;;;20.30;99.90;;;;;;5055195;28;20025;-81
2021/06/26 08:51:39;;;;;;;32.15;22.80;;;20.40;99.90;;;;;;5052921;28;20482;-82
2021/06/26 08:54:13;;;;;;;30.60;23.38;;;20.40;99.90;;;;;;5052878;28;20021;-82
2021/06/26 08:56:41;;;;;;;27.33;20.33;;;20.60;99.90;;;;;;5051494;28;20021;-82
2021/06/26 08:59:06;;;;;;;26.42;20.98;;;20.80;99.90;;;;;;5069045;28;20046;-82
2021/06/26 09:01:37;;;;;;;25.67;19.92;;;20.80;99.90;;;;;;5068120;28;20412;-81
2021/06/26 09:04:15;;;;;;;23.60;17.90;;;20.90;99.90;;;;;;5068118;28;20021;-81
2021/06/26 09:06:55;;;;;;;24.08;18.13;;;21.00;99.90;;;;;;5070736;28;20025;-81
2021/06/26 09:09:36;;;;;;;24.20;17.67;;;21.10;99.20;;;;;;5071408;28;20028;-81
2021/06/26 09:12:09;;;;;;;22.08;16.95;;;20.90;98.60;;;;;;5071652;28;20060;-82
2021/06/26 09:14:37;;;;;;;20.63;18.42;;;21.10;99.90;;;;;;5071527;28;20021;-82
2021/06/26 09:17:04;;;;;;;20.83;16.77;;;21.10;99.00;;;;;;5072676;28;20048;-82
2021/06/26 09:19:31;;;;;;;19.90;17.30;;;21.10;99.90;;;;;;5070764;28;20043;-82
2021/06/26 09:22:08;;;;;;;21.20;15.77;;;21.10;99.60;;;;;;5064836;28;20474;-83
2021/06/26 09:24:42;;;;;;;23.90;16.35;;;21.20;99.40;;;;;;5071336;28;20020;-82
2021/06/26 09:27:13;;;;;;;18.08;15.18;;;21.10;97.20;;;;;;5059096;28;20028;-82
2021/06/26 09:29:51;;;;;;;17.65;13.77;;;21.10;97.10;;;;;;5058634;28;20020;-82
2021/06/26 09:32:28;;;;;;;18.33;14.43;;;21.20;97.60;;;;;;5050750;28;20036;-82
2021/06/26 09:34:54;;;;;;;15.88;13.52;;;21.30;96.90;;;;;;5053336;28;20017;-82
2021/06/26 09:37:21;;;;;;;13.18;11.82;;;21.80;95.00;;;;;;5052634;28;20020;-82
2021/06/26 09:39:48;;;;;;;15.90;10.70;;;21.80;88.00;;;;;;5055464;28;20060;-82
2021/06/26 09:42:19;;;;;;;14.02;11.15;;;22.00;87.70;;;;;;5053595;28;20106;-82
2021/06/26 09:44:53;;;;;;;13.60;10.68;;;22.10;83.60;;;;;;5060308;28;20429;-83
2021/06/26 09:47:33;;;;;;;11.85;9.07;;;22.50;84.50;;;;;;5058110;28;20028;-82
2021/06/26 09:50:25;;;;;;;11.77;10.27;;;22.80;80.30;;;;;;5059943;28;20123;-82
2021/06/26 09:52:55;;;;;;;12.60;10.00;;;23.10;76.10;;;;;;5059564;28;20039;-82
2021/06/26 09:55:24;;;;;;;12.68;10.02;;;23.10;77.90;;;;;;5059875;28;20013;-82
2021/06/26 09:57:52;;;;;;;12.48;9.93;;;23.10;79.70;;;;;;5055910;28;20074;-82
2021/06/26 10:00:19;;;;;;;13.23;8.70;;;23.20;76.30;;;;;;5063360;28;20055;-83
2021/06/26 10:02:45;;;;;;;13.18;9.35;;;22.80;74.50;;;;;;5064852;28;20020;-83
2021/06/26 10:05:12;;;;;;;12.55;10.70;;;22.60;78.00;;;;;;5064303;28;20028;-82
2021/06/26 10:07:39;;;;;;;16.85;12.23;;;22.10;83.70;;;;;;5064067;28;20116;-83
2021/06/26 10:10:06;;;;;;;14.30;11.88;;;21.40;86.90;;;;;;5060115;28;20389;-82
2021/06/26 10:12:35;;;;;;;18.17;11.75;;;21.20;88.00;;;;;;5062235;28;20115;-82
2021/06/26 10:15:01;;;;;;;15.52;12.43;;;21.20;89.60;;;;;;5055836;28;20025;-80
2021/06/26 10:17:28;;;;;;;17.25;11.18;;;21.10;89.70;;;;;;5065711;28;20186;-80
2021/06/26 10:19:55;;;;;;;16.75;11.02;;;21.20;89.80;;;;;;5066620;28;20082;-81
2021/06/26 10:22:21;;;;;;;13.93;11.32;;;21.20;89.40;;;;;;5058681;28;20731;-81
2021/06/26 10:24:48;;;;;;;13.73;11.38;;;21.20;88.20;;;;;;5049702;28;20100;-82
2021/06/26 10:27:19;;;;;;;12.18;10.07;;;21.30;87.30;;;;;;5066420;28;20024;-82
2021/06/26 10:29:44;;;;;;;10.02;8.18;;;21.30;85.80;;;;;;5068860;28;20024;-82
2021/06/26 10:32:12;;;;;;;10.82;8.48;;;21.50;79.90;;;;;;5067553;28;20013;-82
2021/06/26 10:34:46;;;;;;;13.93;9.65;;;21.60;79.30;;;;;;5064281;28;20066;-82
2021/06/26 10:37:22;;;;;;;12.00;10.23;;;21.50;82.00;;;;;;5058282;28;20029;-82
2021/06/26 10:40:02;;;;;;;11.75;9.18;;;21.50;81.10;;;;;;5060986;28;20038;-82
2021/06/26 10:42:34;;;;;;;10.68;8.68;;;21.80;79.60;;;;;;5059775;28;20024;-82
2021/06/26 10:45:00;;;;;;;7.43;6.80;;;22.10;76.10;;;;;;5058853;28;20423;-82
2021/06/26 10:47:37;;;;;;;8.20;6.68;;;22.60;75.40;;;;;;5066956;28;20028;-81
2021/06/26 10:50:14;;;;;;;11.52;6.57;;;22.80;71.00;;;;;;5070820;28;20033;-82
2021/06/26 10:52:57;;;;;;;7.85;6.20;;;22.90;70.80;;;;;;5071770;28;20027;-81
2021/06/26 10:55:31;;;;;;;8.65;6.65;;;23.00;70.20;;;;;;5063576;28;20066;-82
2021/06/26 10:57:59;;;;;;;8.30;6.40;;;22.90;71.00;;;;;;5066167;28;20094;-80
2021/06/26 11:00:36;;;;;;;9.43;7.40;;;23.10;72.90;;;;;;5068024;28;20032;-80
2021/06/26 11:03:03;;;;;;;9.38;6.32;;;23.00;71.30;;;;;;5064962;28;20606;-80
2021/06/26 11:05:34;;;;;;;8.43;6.82;;;23.20;71.20;;;;;;5066576;28;20013;-80
2021/06/26 11:07:59;;;;;;;7.15;5.65;;;23.10;71.90;;;;;;5065011;28;20024;-80
2021/06/26 11:10:26;;;;;;;9.18;6.80;;;22.80;73.10;;;;;;5073417;28;20044;-80
2021/06/26 11:12:52;;;;;;;7.63;5.50;;;22.90;74.60;;;;;;5071769;28;20031;-80
2021/06/26 11:15:31;;;;;;;8.10;4.88;;;22.80;72.80;;;;;;5073468;28;20063;-80
2021/06/26 11:17:57;;;;;;;4.70;4.30;;;22.60;69.50;;;;;;5074147;28;20025;-80
2021/06/26 11:20:24;;;;;;;4.78;4.28;;;22.40;70.40;;;;;;5073221;28;20038;-80
2021/06/26 11:22:55;;;;;;;6.10;5.10;;;22.50;71.30;;;;;;5073754;28;20024;-79
2021/06/26 11:25:24;;;;;;;9.50;6.90;;;22.60;72.80;;;;;;5074682;28;20100;-80
2021/06/26 11:28:04;;;;;;;7.50;6.68;;;22.60;72.40;;;;;;5070215;28;20024;-80
2021/06/26 11:30:30;;;;;;;8.05;6.43;;;22.80;72.50;;;;;;5072655;28;20009;-80
2021/06/26 11:32:57;;;;;;;8.70;6.35;;;22.80;69.50;;;;;;5071040;28;20492;-80
2021/06/26 11:35:31;;;;;;;8.68;7.50;;;23.00;69.30;;;;;;5074797;28;20078;-80
2021/06/26 11:37:57;;;;;;;9.13;6.05;;;23.00;70.60;;;;;;5074597;28;20032;-80
2021/06/26 11:40:25;;;;;;;7.05;5.40;;;23.00;67.40;;;;;;5073324;28;20036;-81
2021/06/26 11:42:55;;;;;;;9.35;6.68;;;23.10;65.80;;;;;;5068305;28;20028;-81
2021/06/26 11:45:35;;;;;;;7.45;6.40;;;23.20;66.90;;;;;;5062744;28;20087;-80
2021/06/26 11:48:11;;;;;;;8.85;7.28;;;23.10;69.70;;;;;;5062719;28;20094;-80
2021/06/26 11:50:40;;;;;;;9.10;6.70;;;23.00;71.10;;;;;;5063712;28;20123;-80
2021/06/26 11:53:07;;;;;;;9.88;7.47;;;22.90;71.20;;;;;;5064676;28;20021;-80
2021/06/26 11:56:01;;;;;;;9.55;7.10;;;22.90;72.20;;;;;;5070757;28;20035;-82
2021/06/26 11:58:45;;;;;;;8.80;7.50;;;22.90;74.20;;;;;;5064951;28;20356;-81
2021/06/26 12:01:24;;;;;;;12.90;8.00;;;22.80;72.70;;;;;;5067446;28;20043;-81
2021/06/26 12:03:50;;;;;;;9.88;7.68;;;22.70;73.10;;;;;;5062693;28;20013;-80
2021/06/26 12:06:16;;;;;;;8.50;7.63;;;22.80;74.30;;;;;;5062627;28;20642;-80
2021/06/26 12:08:54;;;;;;;8.63;7.38;;;22.50;75.50;;;;;;5062125;28;20106;-80
2021/06/26 12:11:20;;;;;;;11.75;7.50;;;22.80;76.50;;;;;;5071380;28;20547;-80
2021/06/26 12:13:48;;;;;;;8.07;7.07;;;22.80;72.90;;;;;;5072678;28;20033;-81
2021/06/26 12:16:21;;;;;;;9.90;8.10;;;23.10;74.50;;;;;;5073227;28;20075;-81
2021/06/26 12:18:48;;;;;;;9.27;7.70;;;23.20;72.20;;;;;;5062549;28;20054;-81
2021/06/26 12:21:15;;;;;;;10.73;7.47;;;23.30;73.00;;;;;;5058274;28;20033;-81
2021/06/26 12:23:52;;;;;;;8.73;7.70;;;23.60;71.90;;;;;;5060119;28;20024;-82
2021/06/26 12:26:23;;;;;;;9.88;7.55;;;23.70;72.60;;;;;;5070261;28;20021;-82
2021/06/26 12:28:49;;;;;;;11.25;7.40;;;23.80;69.60;;;;;;5069057;28;20023;-82
2021/06/26 12:31:15;;;;;;;8.00;7.20;;;23.50;70.60;;;;;;5071724;28;20028;-83